Terminal Aerodrome Forecast
Issued by NWS

Home | Current Version | Previous Version | Text Only | Print | Product List | Glossary On
Versions: 1 2 3 4 5 6 7 8 9 10 11 12 13 14 15 16 17 18
000
FTUS43 KICT 311200 AAB
TAFCNU
TAF AMD
KCNU 311250Z 3113/0112 01004KT 3SM BR SCT004
      TEMPO 3113/3114 1SM BR
     FM311430 07005KT 5SM BR SCT012
     FM311530 07005KT P6SM SCT035=

USA.gov is the U.S. government's official web portal to all federal, state and local government web resources and services.